Headquarters, Valles Caldera, New Mexico Weather observations

Data are for 10 minute period ending at time listed.
 Day   Time   Solar   Ave.   Ave.  Ave.  Vector  Max.   Baro.   Total    
  of    of     Rad.   Air    Rel.  Wind   Wind   Wind  Press.  Precip.   
Year   Day            Temp.  Hum.  Speed  Dir.   Gust                    
2017   (MST)  Kw/m2    F      %     mph   deg.    mph    mb.     in.     
-------------------------------------------------------------------------
  55    6:20   0.00   15.3    73    8.8   238    20.9   730.1    0.00 
  55    6:30   0.00   15.2    74   10.0   229    18.5   730.1    0.00 
  55    6:40   0.00   15.2    75    7.9   222    19.7   730.1    0.00 
  55    6:50   0.01   15.2    71   11.5   229    25.0   730.2    0.00 
  55    7:00   0.02   15.4    70    9.6   237    18.5   730.3    0.00 
  55    7:10   0.03   15.6    66    9.2   236    20.9   730.4    0.00 
  55    7:20   0.04   15.8    64    7.7   238    13.7   730.5    0.00 
  55    7:30   0.08   17.0    62    7.6   231    16.7   730.7    0.00 
  55    7:40   0.12   18.1    56   11.7   232    23.9   730.8    0.00 
  55    7:50   0.15   18.7    54   11.1   225    20.3   730.9    0.00 
  55    8:00   0.20   19.3    52   10.3   222    22.1   731.0    0.00 
  55    8:10   0.23   19.3    51   11.7   236    25.6   731.1    0.00 
  55    8:20   0.27   20.0    49   10.9   240    20.3   731.1    0.00 
  55    8:30   0.31   20.9    48    8.8   229    15.5   731.0    0.00 
  55    8:40   0.29   20.4    48   10.3   233    22.1   731.1    0.00 
  55    8:50   0.31   20.3    45   10.5   234    21.5   731.2    0.00 
  55    9:00   0.45   20.8    44    9.9   264    20.3   731.2    0.00 
  55    9:10   0.47   22.0    43   11.8   211    23.3   731.2    0.00 
  55    9:20   0.41   21.7    44    8.4   233    21.5   731.3    0.00 
  55    9:30   0.47   23.5    41    7.3   228    17.3   731.4    0.00 
  55    9:40   0.43   22.7    42    8.2   243    19.1   731.4    0.00 
  55    9:50   0.42   22.1    45    9.3   240    21.5   731.5    0.00 
  55   10:00   0.42   21.6    45    8.8   208    17.3   731.5    0.00 
  55   10:10   0.45   22.1    42    8.1   220    18.5   731.6    0.00 
  55   10:20   0.34   21.5    41    8.7   223    16.7   731.7    0.00 
  55   10:30   0.50   22.0    41    6.4   245    17.9   731.7    0.00 
  55   10:40   0.58   23.1    39   14.0   226    25.0   731.7    0.00 
  55   10:50   0.73   23.5    36   13.1   226    29.2   731.8    0.00 
  55   11:00   0.71   23.8    36   13.4   232    27.4   731.8    0.00 
  55   11:10   0.54   23.8    37   12.6   235    26.8   731.8    0.00 
  55   11:20   0.43   22.1    40   10.7   239    23.3   732.0    0.00 
  55   11:30   0.68   23.4    35   12.5   230    27.4   732.0    0.00 
  55   11:40   0.73   24.2    33   13.3   238    24.5   731.9    0.00 
  55   11:50   0.70   23.9    34   15.9   230    31.6   731.7    0.00 
  55   12:00   0.70   24.1    33   15.6   246    35.2   731.8    0.00 
  55   12:10   0.72   23.6    32   15.5   240    28.6   731.8    0.00 
  55   12:20   0.68   24.0    33   10.9   241    23.9   731.7    0.00 
  55   12:30   0.63   24.3    33   11.4   248    21.5   731.7    0.00 
  55   12:40   0.30   23.8    32    9.3   269    23.3   731.7    0.00 
  55   12:50   0.45   23.1    35    9.8   237    17.3   731.7    0.00 
  55   13:00   0.72   25.0    33   10.8   259    23.3   731.6    0.00 
  55   13:10   0.77   25.9    30   13.1   245    32.2   731.6    0.00 
  55   13:20   0.65   25.4    31   15.0   241    26.8   731.7    0.00 
  55   13:30   0.71   25.4    30   13.6   243    33.4   731.6    0.00 
  55   13:40   0.57   25.1    31   14.7   218    30.4   731.5    0.00 
  55   13:50   0.28   23.6    31   16.2   242    37.0   731.8    0.00 
  55   14:00   0.49   24.1    31   13.1   240    33.4   731.7    0.00 
  55   14:10   0.33   24.2    31   10.0   250    20.3   731.7    0.00 
  55   14:20   0.37   25.4    29   10.1   246    23.3   731.5    0.00 
  55   14:30   0.26   24.6    29   10.1   240    23.9   731.6    0.00 
  55   14:40   0.28   25.3    28   10.7   254    26.2   731.7    0.00 
  55   14:50   0.48   25.4    27    7.2   266    25.6   731.7    0.00 
  55   15:00   0.49   25.7    23   15.4   244    29.8   731.8    0.00 
  55   15:10   0.47   25.6    22   12.1   225    29.2   731.8    0.00 
  55   15:20   0.44   26.0    22   15.7   232    31.0   731.9    0.00 
  55   15:30   0.42   25.7    24   14.0   235    34.6   731.9    0.00 
  55   15:40   0.39   26.0    23   11.6   246    26.8   732.0    0.00 
  55   15:50   0.36   26.6    22   12.0   242    23.3   732.1    0.00 
  55   16:00   0.34   26.6    22    9.2   276    23.3   732.0    0.00 
  55   16:10   0.31   26.6    22   14.5   237    26.8   732.0    0.00 
  55   16:20   0.27   26.0    22   16.5   249    41.1   732.1    0.00 
  55   16:30   0.25   26.2    22   11.6   245    29.8   732.2    0.00 
  55   16:40   0.22   26.5    22   11.5   236    23.3   732.2    0.00 
  55   16:50   0.19   26.1    23   11.1   241    23.9   732.2    0.00 
  55   17:00   0.09   25.4    24   10.0   242    19.7   732.3    0.00 
  55   17:10   0.01   23.7    24    8.3   259    16.1   732.3    0.00 
  55   17:20   0.01   23.2    26    7.8   235    23.9   732.4    0.00 
  55   17:30   0.01   23.0    26   10.8   242    23.9   732.6    0.00 
  55   17:40   0.01   22.7    28   11.7   241    23.9   732.7    0.00 
  55   17:50   0.01   22.5    28   11.4   234    20.9   732.8    0.00 
  55   18:00   0.00   22.4    29    9.5   242    18.5   732.9    0.00 
  55   18:10   0.00   22.2    29    7.7   247    14.3   733.0    0.00 
  55   18:20   0.00   21.9    30    7.8   228    18.5   733.1    0.00 
  55   18:30   0.00   21.2    32    5.3   241    17.3   733.2    0.00 
  55   18:40   0.00   21.3    31    6.4   249    20.3   733.3    0.00 
  55   18:50   0.00   20.9    32    7.0   250    16.7   733.5    0.00 
  55   19:00   0.00   20.9    33    4.8   272    11.3   733.7    0.00 
  55   19:10   0.00   21.0    33    5.5   270    11.9   733.8    0.00 
  55   19:20   0.00   20.9    33    7.1   271    17.9   733.9    0.00 
  55   19:30   0.00   20.6    34    4.7   288    13.7   734.0    0.00 
  55   19:40   0.00   20.3    34    4.9   338     9.6   734.0    0.00 
  55   19:50   0.00   20.0    34    4.0   321     8.4   734.1    0.00 
  55   20:00   0.00   19.5    36    3.8   332     9.0   734.2    0.00 
  55   20:10   0.00   19.3    34    5.1   333    11.3   734.2    0.00 
  55   20:20   0.00   18.9    35    5.6   333    16.7   734.2    0.00 
  55   20:30   0.00   19.2    33    4.8   324     9.0   734.4    0.00 
  55   20:40   0.00   19.1    32    4.4   325     8.4   734.5    0.00 
  55   20:50   0.00   19.0    32    5.6   333    11.9   734.6    0.00 
  55   21:00   0.00   18.9    32    6.2   342    12.5   734.7    0.00 
  55   21:10   0.00   18.0    34    4.4   328    10.2   734.8    0.00 
  55   21:20   0.00   17.7    33    3.9   327     9.0   734.9    0.00 
  55   21:30   0.00   17.9    31    4.2   333    10.2   734.9    0.00 
  55   21:40   0.00   18.2    31    4.0   333     7.8   735.0    0.00 
  55   21:50   0.00   18.2    30    5.0   338     9.6   735.0    0.00 
  55   22:00   0.00   18.6    29    4.5   336     8.4   735.0    0.00 
  55   22:10   0.00   18.3    30    4.1   332     7.2   735.1    0.00 
  55   22:20   0.00   18.4    30    4.8   325    13.1   735.1    0.00 
  55   22:30   0.00   18.2    29    5.4   332    12.5   735.1    0.00 
  55   22:40   0.00   18.3    29    3.8   339    10.8   735.1    0.00 
  55   22:50   0.00   17.7    30    3.9   327     7.2   735.1    0.00 
  55   23:00   0.00   18.0    30    4.5   327     8.4   735.1    0.00 
  55   23:10   0.00   17.0    34    3.2   335     6.0   735.1    0.00 
  55   23:20   0.00   15.8    36    3.9   334     6.6   735.1    0.00 
  55   23:30   0.00   16.1    36    3.9   337     6.6   735.1    0.00 
  55   23:40   0.00   16.0    36    4.1   312    10.2   735.1    0.00 
  55   23:50   0.00   14.8    41    4.0   291     7.2   735.1    0.00 
  56    0:00   0.00   13.5    41    2.2   300     4.8   735.1    0.00 
  56    0:10   0.00   13.7    42    2.2   268     5.4   735.0    0.00 
  56    0:20   0.00   13.7    43    2.4   301     4.2   735.0    0.00 
  56    0:30   0.00   13.5    44    2.9    30     6.6   735.0    0.00 
  56    0:40   0.00   12.9    45    4.0   351     8.4   735.0    0.00 
  56    0:50   0.00   13.7    43    4.1    16     7.2   735.0    0.00 
  56    1:00   0.00   12.8    45    3.1   359     5.4   735.1    0.00 
  56    1:10   0.00   13.0    45    4.1   355     7.8   735.1    0.00 
  56    1:20   0.00   12.9    46    3.3   310     5.4   735.2    0.00 
  56    1:30   0.00   11.9    48    2.7   316     5.4   735.2    0.00 
  56    1:40   0.00   11.3    50    2.8   310     5.4   735.1    0.00 
  56    1:50   0.00   11.0    50    2.9   329     6.6   735.0    0.00 
  56    2:00   0.00   10.8    51    3.0   297     4.2   734.9    0.00 
  56    2:10   0.00   10.9    50    1.4   293     3.6   734.8    0.00 
  56    2:20   0.00   10.7    50    3.0   312     6.0   734.7    0.00 
  56    2:30   0.00   10.7    50    2.0    19     5.4   734.6    0.00 
  56    2:40   0.00   10.2    53    2.8   279     4.8   734.6    0.00 
  56    2:50   0.00    9.9    54    2.9    12     5.4   734.6    0.00 
  56    3:00   0.00    9.2    54    1.8   303     4.2   734.5    0.00 
  56    3:10   0.00    9.1    55    2.1   316     6.0   734.5    0.00 
  56    3:20   0.00    9.4    54    1.7   338     4.2   734.5    0.00 
  56    3:30   0.00    9.0    55    3.3   297     6.0   734.5    0.00 
  56    3:40   0.00    8.8    55    2.7   325     5.4   734.5    0.00 
  56    3:50   0.00    8.9    54    2.5   301     4.8   734.5    0.00 
  56    4:00   0.00    8.3    57    2.9   312     5.4   734.4    0.00 
  56    4:10   0.00    8.2    56    2.5   305     6.6   734.5    0.00 
  56    4:20   0.00    8.6    56    2.6   346     6.6   734.5    0.00 
  56    4:30   0.00    8.7    55    2.3   323     4.8   734.5    0.00 
  56    4:40   0.00    9.2    54    3.6   336     5.4   734.5    0.00 
  56    4:50   0.00    9.0    56    2.9   327     4.2   734.6    0.00 
  56    5:00   0.00    8.1    56    3.4   269     5.4   734.6    0.00 
  56    5:10   0.00    8.1    56    2.5   283     5.4   734.7    0.00 
  56    5:20   0.00    7.5    58    4.1   267     7.8   734.7    0.00 
  56    5:30   0.00    6.9    60    2.2   284     5.4   734.7    0.00 
  56    5:40   0.00    7.3    58    2.9   268     7.2   734.8    0.00 
  56    5:50   0.00    7.1    58    2.6   280     6.6   734.8    0.00 
  56    6:00   0.00    7.2    58    2.9   282     5.4   734.8    0.00 
  56    6:10   0.00    6.6    59    3.2   248     5.4   734.8    0.00 

Return to Headquarters, Valles Caldera graphs page.


Western Regional Climate Center,wrcc@dri.edu